sensor_id;sensor_type;location;lat;lon;timestamp;pressure;altitude;pressure_sealevel;temperature
19666;BMP180;9980;51.020;7.772;2022-10-20T00:02:12;97873.00;;;11.70
19666;BMP180;9980;51.020;7.772;2022-10-20T00:04:52;97880.00;;;11.70
19666;BMP180;9980;51.020;7.772;2022-10-20T00:07:39;97879.00;;;11.70
19666;BMP180;9980;51.020;7.772;2022-10-20T00:10:20;97877.00;;;11.70
19666;BMP180;9980;51.020;7.772;2022-10-20T00:13:07;97878.00;;;11.70
19666;BMP180;9980;51.020;7.772;2022-10-20T00:15:53;97858.00;;;11.70
19666;BMP180;9980;51.020;7.772;2022-10-20T00:18:40;97865.00;;;11.70
19666;BMP180;9980;51.020;7.772;2022-10-20T00:21:24;97873.00;;;11.70
19666;BMP180;9980;51.020;7.772;2022-10-20T00:24:18;97886.00;;;11.70
19666;BMP180;9980;51.020;7.772;2022-10-20T00:26:55;97865.00;;;11.80
19666;BMP180;9980;51.020;7.772;2022-10-20T00:29:48;97874.00;;;11.70
19666;BMP180;9980;51.020;7.772;2022-10-20T00:32:21;97857.00;;;11.70
19666;BMP180;9980;51.020;7.772;2022-10-20T00:35:19;97860.00;;;11.70
19666;BMP180;9980;51.020;7.772;2022-10-20T00:37:52;97850.00;;;11.70
19666;BMP180;9980;51.020;7.772;2022-10-20T00:40:46;97837.00;;;11.70
19666;BMP180;9980;51.020;7.772;2022-10-20T00:43:20;97839.00;;;11.70
19666;BMP180;9980;51.020;7.772;2022-10-20T00:46:27;97844.00;;;11.70
19666;BMP180;9980;51.020;7.772;2022-10-20T00:49:18;97850.00;;;11.70
19666;BMP180;9980;51.020;7.772;2022-10-20T00:52:08;97824.00;;;11.60
19666;BMP180;9980;51.020;7.772;2022-10-20T00:54:49;97815.00;;;11.60
19666;BMP180;9980;51.020;7.772;2022-10-20T00:57:38;97815.00;;;11.60
19666;BMP180;9980;51.020;7.772;2022-10-20T01:00:18;97817.00;;;11.60
19666;BMP180;9980;51.020;7.772;2022-10-20T01:03:13;97795.00;;;11.50
19666;BMP180;9980;51.020;7.772;2022-10-20T01:05:54;97807.00;;;11.50
19666;BMP180;9980;51.020;7.772;2022-10-20T01:08:41;97821.00;;;11.50
19666;BMP180;9980;51.020;7.772;2022-10-20T01:12:13;97810.00;;;11.50
19666;BMP180;9980;51.020;7.772;2022-10-20T01:15:26;97805.00;;;11.40
19666;BMP180;9980;51.020;7.772;2022-10-20T01:18:47;97805.00;;;11.40
19666;BMP180;9980;51.020;7.772;2022-10-20T01:29:32;97778.00;;;11.20
19666;BMP180;9980;51.020;7.772;2022-10-20T01:32:31;97774.00;;;11.20
19666;BMP180;9980;51.020;7.772;2022-10-20T01:35:40;97776.00;;;11.20
19666;BMP180;9980;51.020;7.772;2022-10-20T01:38:47;97769.00;;;11.10
19666;BMP180;9980;51.020;7.772;2022-10-20T01:41:55;97760.00;;;11.10
19666;BMP180;9980;51.020;7.772;2022-10-20T01:44:39;97759.00;;;11.20
19666;BMP180;9980;51.020;7.772;2022-10-20T01:47:28;97756.00;;;11.20
19666;BMP180;9980;51.020;7.772;2022-10-20T01:50:10;97761.00;;;11.30
19666;BMP180;9980;51.020;7.772;2022-10-20T01:53:05;97765.00;;;11.30
19666;BMP180;9980;51.020;7.772;2022-10-20T01:55:51;97749.00;;;11.30
19666;BMP180;9980;51.020;7.772;2022-10-20T01:58:58;97748.00;;;11.30
19666;BMP180;9980;51.020;7.772;2022-10-20T02:01:53;97743.00;;;11.30
19666;BMP180;9980;51.020;7.772;2022-10-20T02:07:57;97718.00;;;11.30
19666;BMP180;9980;51.020;7.772;2022-10-20T02:10:58;97719.00;;;11.30
19666;BMP180;9980;51.020;7.772;2022-10-20T02:13:37;97722.00;;;11.40
19666;BMP180;9980;51.020;7.772;2022-10-20T02:16:39;97726.00;;;11.40
19666;BMP180;9980;51.020;7.772;2022-10-20T02:19:25;97724.00;;;11.40
19666;BMP180;9980;51.020;7.772;2022-10-20T02:22:16;97721.00;;;11.50
19666;BMP180;9980;51.020;7.772;2022-10-20T02:24:59;97721.00;;;11.50
19666;BMP180;9980;51.020;7.772;2022-10-20T02:27:47;97724.00;;;11.50
19666;BMP180;9980;51.020;7.772;2022-10-20T02:30:28;97722.00;;;11.60
19666;BMP180;9980;51.020;7.772;2022-10-20T02:33:25;97704.00;;;11.50
19666;BMP180;9980;51.020;7.772;2022-10-20T02:36:18;97715.00;;;11.60
19666;BMP180;9980;51.020;7.772;2022-10-20T02:39:12;97712.00;;;11.60
19666;BMP180;9980;51.020;7.772;2022-10-20T02:41:46;97716.00;;;11.60
19666;BMP180;9980;51.020;7.772;2022-10-20T02:44:40;97695.00;;;11.50
19666;BMP180;9980;51.020;7.772;2022-10-20T02:47:14;97687.00;;;11.50
19666;BMP180;9980;51.020;7.772;2022-10-20T02:50:08;97692.00;;;11.50
19666;BMP180;9980;51.020;7.772;2022-10-20T02:52:42;97695.00;;;11.50
19666;BMP180;9980;51.020;7.772;2022-10-20T02:55:35;97691.00;;;11.50
19666;BMP180;9980;51.020;7.772;2022-10-20T02:58:09;97694.00;;;11.50
19666;BMP180;9980;51.020;7.772;2022-10-20T03:01:04;97701.00;;;11.50
19666;BMP180;9980;51.020;7.772;2022-10-20T03:03:37;97688.00;;;11.50
19666;BMP180;9980;51.020;7.772;2022-10-20T03:06:31;97676.00;;;11.50
19666;BMP180;9980;51.020;7.772;2022-10-20T03:09:12;97679.00;;;11.60
19666;BMP180;9980;51.020;7.772;2022-10-20T03:11:58;97680.00;;;11.60
19666;BMP180;9980;51.020;7.772;2022-10-20T03:14:39;97687.00;;;11.60
19666;BMP180;9980;51.020;7.772;2022-10-20T03:17:25;97687.00;;;11.70
19666;BMP180;9980;51.020;7.772;2022-10-20T03:20:06;97692.00;;;11.70
19666;BMP180;9980;51.020;7.772;2022-10-20T03:23:00;97682.00;;;11.70
19666;BMP180;9980;51.020;7.772;2022-10-20T03:25:41;97668.00;;;11.80
19666;BMP180;9980;51.020;7.772;2022-10-20T03:28:35;97684.00;;;11.70
19666;BMP180;9980;51.020;7.772;2022-10-20T03:31:15;97675.00;;;11.70
19666;BMP180;9980;51.020;7.772;2022-10-20T03:34:09;97680.00;;;11.70
19666;BMP180;9980;51.020;7.772;2022-10-20T03:36:43;97662.00;;;11.70
19666;BMP180;9980;51.020;7.772;2022-10-20T03:39:36;97667.00;;;11.70
19666;BMP180;9980;51.020;7.772;2022-10-20T03:42:10;97663.00;;;11.70
19666;BMP180;9980;51.020;7.772;2022-10-20T03:45:04;97637.00;;;11.60
19666;BMP180;9980;51.020;7.772;2022-10-20T03:47:38;97631.00;;;11.60
19666;BMP180;9980;51.020;7.772;2022-10-20T03:50:31;97630.00;;;11.60
19666;BMP180;9980;51.020;7.772;2022-10-20T03:53:05;97624.00;;;11.60
19666;BMP180;9980;51.020;7.772;2022-10-20T03:56:04;97635.00;;;11.50
19666;BMP180;9980;51.020;7.772;2022-10-20T03:58:38;97647.00;;;11.60
19666;BMP180;9980;51.020;7.772;2022-10-20T04:01:34;97629.00;;;11.50
19666;BMP180;9980;51.020;7.772;2022-10-20T04:04:15;97650.00;;;11.60
19666;BMP180;9980;51.020;7.772;2022-10-20T04:07:01;97619.00;;;11.50
19666;BMP180;9980;51.020;7.772;2022-10-20T04:09:42;97624.00;;;11.50
19666;BMP180;9980;51.020;7.772;2022-10-20T04:12:29;97615.00;;;11.50
19666;BMP180;9980;51.020;7.772;2022-10-20T04:15:10;97629.00;;;11.50
19666;BMP180;9980;51.020;7.772;2022-10-20T04:17:58;97614.00;;;11.50
19666;BMP180;9980;51.020;7.772;2022-10-20T04:20:38;97615.00;;;11.60
19666;BMP180;9980;51.020;7.772;2022-10-20T04:23:24;97601.00;;;11.60
19666;BMP180;9980;51.020;7.772;2022-10-20T04:26:11;97601.00;;;11.60
19666;BMP180;9980;51.020;7.772;2022-10-20T04:28:58;97608.00;;;11.60
19666;BMP180;9980;51.020;7.772;2022-10-20T04:31:39;97612.00;;;11.70
19666;BMP180;9980;51.020;7.772;2022-10-20T04:34:34;97591.00;;;11.70
19666;BMP180;9980;51.020;7.772;2022-10-20T04:37:09;97598.00;;;11.70
19666;BMP180;9980;51.020;7.772;2022-10-20T04:40:03;97614.00;;;11.70
19666;BMP180;9980;51.020;7.772;2022-10-20T04:42:37;97603.00;;;11.70
19666;BMP180;9980;51.020;7.772;2022-10-20T04:45:31;97597.00;;;11.70
19666;BMP180;9980;51.020;7.772;2022-10-20T04:48:04;97592.00;;;11.80
19666;BMP180;9980;51.020;7.772;2022-10-20T04:51:09;97590.00;;;11.80
19666;BMP180;9980;51.020;7.772;2022-10-20T04:53:50;97576.00;;;11.80
19666;BMP180;9980;51.020;7.772;2022-10-20T04:56:44;97591.00;;;11.80
19666;BMP180;9980;51.020;7.772;2022-10-20T04:59:25;97569.00;;;11.80
19666;BMP180;9980;51.020;7.772;2022-10-20T05:02:12;97568.00;;;11.80
19666;BMP180;9980;51.020;7.772;2022-10-20T05:04:52;97564.00;;;11.80
19666;BMP180;9980;51.020;7.772;2022-10-20T05:07:45;97558.00;;;11.90
19666;BMP180;9980;51.020;7.772;2022-10-20T05:10:26;97548.00;;;11.90
19666;BMP180;9980;51.020;7.772;2022-10-20T05:13:15;97557.00;;;11.90
19666;BMP180;9980;51.020;7.772;2022-10-20T05:15:56;97536.00;;;11.90
19666;BMP180;9980;51.020;7.772;2022-10-20T05:18:50;97519.00;;;11.90
19666;BMP180;9980;51.020;7.772;2022-10-20T05:21:33;97520.00;;;12.00
19666;BMP180;9980;51.020;7.772;2022-10-20T05:24:34;97515.00;;;12.00
19666;BMP180;9980;51.020;7.772;2022-10-20T05:27:28;97515.00;;;12.00
19666;BMP180;9980;51.020;7.772;2022-10-20T05:30:08;97529.00;;;12.00
19666;BMP180;9980;51.020;7.772;2022-10-20T05:33:03;97520.00;;;12.10
19666;BMP180;9980;51.020;7.772;2022-10-20T05:35:44;97513.00;;;12.10
19666;BMP180;9980;51.020;7.772;2022-10-20T05:38:31;97517.00;;;12.10
19666;BMP180;9980;51.020;7.772;2022-10-20T05:41:14;97518.00;;;12.10
19666;BMP180;9980;51.020;7.772;2022-10-20T05:44:14;97503.00;;;12.10
19666;BMP180;9980;51.020;7.772;2022-10-20T05:46:47;97501.00;;;12.20
19666;BMP180;9980;51.020;7.772;2022-10-20T05:49:41;97499.00;;;12.20
19666;BMP180;9980;51.020;7.772;2022-10-20T05:52:14;97493.00;;;12.30
19666;BMP180;9980;51.020;7.772;2022-10-20T05:55:08;97473.00;;;12.30
19666;BMP180;9980;51.020;7.772;2022-10-20T05:57:42;97493.00;;;12.30
19666;BMP180;9980;51.020;7.772;2022-10-20T06:00:36;97495.00;;;12.30
19666;BMP180;9980;51.020;7.772;2022-10-20T06:03:21;97489.00;;;12.40
19666;BMP180;9980;51.020;7.772;2022-10-20T06:06:08;97490.00;;;12.40
19666;BMP180;9980;51.020;7.772;2022-10-20T06:08:48;97490.00;;;12.50
19666;BMP180;9980;51.020;7.772;2022-10-20T06:11:35;97499.00;;;12.50
19666;BMP180;9980;51.020;7.772;2022-10-20T06:14:16;97509.00;;;12.50
19666;BMP180;9980;51.020;7.772;2022-10-20T06:17:05;97518.00;;;12.50
19666;BMP180;9980;51.020;7.772;2022-10-20T06:19:45;97503.00;;;12.60
19666;BMP180;9980;51.020;7.772;2022-10-20T06:22:39;97500.00;;;12.50
19666;BMP180;9980;51.020;7.772;2022-10-20T06:25:19;97512.00;;;12.60
19666;BMP180;9980;51.020;7.772;2022-10-20T06:28:06;97532.00;;;12.60
19666;BMP180;9980;51.020;7.772;2022-10-20T06:30:46;97538.00;;;12.70
19666;BMP180;9980;51.020;7.772;2022-10-20T06:33:40;97527.00;;;12.60
19666;BMP180;9980;51.020;7.772;2022-10-20T06:36:15;97529.00;;;12.70
19666;BMP180;9980;51.020;7.772;2022-10-20T06:39:17;97524.00;;;12.70
19666;BMP180;9980;51.020;7.772;2022-10-20T06:41:57;97538.00;;;12.70
19666;BMP180;9980;51.020;7.772;2022-10-20T06:44:52;97526.00;;;12.80
19666;BMP180;9980;51.020;7.772;2022-10-20T06:47:29;97519.00;;;12.80
19666;BMP180;9980;51.020;7.772;2022-10-20T06:50:24;97523.00;;;12.80
19666;BMP180;9980;51.020;7.772;2022-10-20T06:52:57;97515.00;;;12.90
19666;BMP180;9980;51.020;7.772;2022-10-20T06:56:03;97522.00;;;12.90
19666;BMP180;9980;51.020;7.772;2022-10-20T06:58:40;97525.00;;;12.90
19666;BMP180;9980;51.020;7.772;2022-10-20T07:01:37;97517.00;;;13.00
19666;BMP180;9980;51.020;7.772;2022-10-20T07:04:18;97520.00;;;13.10
19666;BMP180;9980;51.020;7.772;2022-10-20T07:07:05;97531.00;;;13.10
19666;BMP180;9980;51.020;7.772;2022-10-20T07:09:45;97540.00;;;13.10
19666;BMP180;9980;51.020;7.772;2022-10-20T07:12:32;97551.00;;;13.20
19666;BMP180;9980;51.020;7.772;2022-10-20T07:15:13;97545.00;;;13.10
19666;BMP180;9980;51.020;7.772;2022-10-20T07:18:00;97539.00;;;13.30
19666;BMP180;9980;51.020;7.772;2022-10-20T07:20:40;97549.00;;;13.30
19666;BMP180;9980;51.020;7.772;2022-10-20T07:23:35;97543.00;;;13.30
19666;BMP180;9980;51.020;7.772;2022-10-20T07:26:19;97528.00;;;13.40
19666;BMP180;9980;51.020;7.772;2022-10-20T07:29:14;97528.00;;;13.40
19666;BMP180;9980;51.020;7.772;2022-10-20T07:31:47;97544.00;;;13.50
19666;BMP180;9980;51.020;7.772;2022-10-20T07:34:42;97529.00;;;13.50
19666;BMP180;9980;51.020;7.772;2022-10-20T07:37:16;97524.00;;;13.50
19666;BMP180;9980;51.020;7.772;2022-10-20T07:40:10;97534.00;;;13.60
19666;BMP180;9980;51.020;7.772;2022-10-20T07:42:44;97531.00;;;13.70
19666;BMP180;9980;51.020;7.772;2022-10-20T07:45:38;97530.00;;;13.70
19666;BMP180;9980;51.020;7.772;2022-10-20T07:48:32;97524.00;;;13.70
19666;BMP180;9980;51.020;7.772;2022-10-20T07:54:16;97547.00;;;13.90
19666;BMP180;9980;51.020;7.772;2022-10-20T07:56:50;97552.00;;;13.90
19666;BMP180;9980;51.020;7.772;2022-10-20T07:59:46;97549.00;;;13.90
19666;BMP180;9980;51.020;7.772;2022-10-20T08:02:19;97541.00;;;14.00
19666;BMP180;9980;51.020;7.772;2022-10-20T08:05:13;97544.00;;;14.00
19666;BMP180;9980;51.020;7.772;2022-10-20T08:07:46;97530.00;;;14.10
19666;BMP180;9980;51.020;7.772;2022-10-20T08:10:40;97524.00;;;14.10
19666;BMP180;9980;51.020;7.772;2022-10-20T08:13:20;97502.00;;;14.20
19666;BMP180;9980;51.020;7.772;2022-10-20T08:16:09;97503.00;;;14.20
19666;BMP180;9980;51.020;7.772;2022-10-20T08:18:53;97503.00;;;14.30
19666;BMP180;9980;51.020;7.772;2022-10-20T08:21:55;97493.00;;;14.30
19666;BMP180;9980;51.020;7.772;2022-10-20T08:24:35;97484.00;;;14.40
19666;BMP180;9980;51.020;7.772;2022-10-20T08:27:23;97477.00;;;14.40
19666;BMP180;9980;51.020;7.772;2022-10-20T08:30:03;97479.00;;;14.40
19666;BMP180;9980;51.020;7.772;2022-10-20T08:33:03;97487.00;;;14.50
19666;BMP180;9980;51.020;7.772;2022-10-20T08:35:43;97478.00;;;14.50
19666;BMP180;9980;51.020;7.772;2022-10-20T08:38:38;97490.00;;;14.50
19666;BMP180;9980;51.020;7.772;2022-10-20T08:41:22;97481.00;;;14.60
19666;BMP180;9980;51.020;7.772;2022-10-20T08:44:40;97465.00;;;14.60
19666;BMP180;9980;51.020;7.772;2022-10-20T08:47:31;97480.00;;;14.70
19666;BMP180;9980;51.020;7.772;2022-10-20T08:50:28;97474.00;;;14.70
19666;BMP180;9980;51.020;7.772;2022-10-20T08:53:03;97455.00;;;14.80
19666;BMP180;9980;51.020;7.772;2022-10-20T08:55:57;97477.00;;;14.80
19666;BMP180;9980;51.020;7.772;2022-10-20T08:58:43;97459.00;;;14.80
19666;BMP180;9980;51.020;7.772;2022-10-20T09:01:35;97452.00;;;14.80
19666;BMP180;9980;51.020;7.772;2022-10-20T09:04:22;97458.00;;;14.90
19666;BMP180;9980;51.020;7.772;2022-10-20T09:07:33;97457.00;;;15.00
19666;BMP180;9980;51.020;7.772;2022-10-20T09:10:26;97441.00;;;15.00
19666;BMP180;9980;51.020;7.772;2022-10-20T09:13:27;97443.00;;;15.10
19666;BMP180;9980;51.020;7.772;2022-10-20T09:16:10;97430.00;;;15.10
19666;BMP180;9980;51.020;7.772;2022-10-20T09:19:27;97431.00;;;15.20
19666;BMP180;9980;51.020;7.772;2022-10-20T09:22:05;97432.00;;;15.20
19666;BMP180;9980;51.020;7.772;2022-10-20T09:25:00;97394.00;;;15.20
19666;BMP180;9980;51.020;7.772;2022-10-20T09:27:55;97436.00;;;15.30
19666;BMP180;9980;51.020;7.772;2022-10-20T09:30:36;97434.00;;;15.40
19666;BMP180;9980;51.020;7.772;2022-10-20T09:33:33;97439.00;;;15.40
19666;BMP180;9980;51.020;7.772;2022-10-20T09:36:18;97452.00;;;15.50
19666;BMP180;9980;51.020;7.772;2022-10-20T09:39:28;97441.00;;;15.50
19666;BMP180;9980;51.020;7.772;2022-10-20T09:42:09;97453.00;;;15.60
19666;BMP180;9980;51.020;7.772;2022-10-20T09:45:18;97459.00;;;15.60
19666;BMP180;9980;51.020;7.772;2022-10-20T09:48:17;97450.00;;;15.70
19666;BMP180;9980;51.020;7.772;2022-10-20T09:51:15;97442.00;;;15.70
19666;BMP180;9980;51.020;7.772;2022-10-20T09:54:04;97436.00;;;15.80
19666;BMP180;9980;51.020;7.772;2022-10-20T09:56:53;97443.00;;;15.80
19666;BMP180;9980;51.020;7.772;2022-10-20T09:59:46;97449.00;;;15.80
19666;BMP180;9980;51.020;7.772;2022-10-20T10:02:36;97454.00;;;15.80
19666;BMP180;9980;51.020;7.772;2022-10-20T10:05:19;97451.00;;;15.90
19666;BMP180;9980;51.020;7.772;2022-10-20T10:08:15;97467.00;;;15.90
19666;BMP180;9980;51.020;7.772;2022-10-20T10:11:04;97453.00;;;15.90
19666;BMP180;9980;51.020;7.772;2022-10-20T10:14:05;97464.00;;;15.90
19666;BMP180;9980;51.020;7.772;2022-10-20T10:16:41;97472.00;;;15.90
19666;BMP180;9980;51.020;7.772;2022-10-20T10:19:36;97467.00;;;15.90
19666;BMP180;9980;51.020;7.772;2022-10-20T10:22:12;97458.00;;;15.90
19666;BMP180;9980;51.020;7.772;2022-10-20T10:25:18;97474.00;;;15.90
19666;BMP180;9980;51.020;7.772;2022-10-20T10:28:17;97475.00;;;15.90
19666;BMP180;9980;51.020;7.772;2022-10-20T10:31:21;97465.00;;;15.90
19666;BMP180;9980;51.020;7.772;2022-10-20T10:37:09;97453.00;;;15.90
19666;BMP180;9980;51.020;7.772;2022-10-20T10:39:51;97457.00;;;15.90
19666;BMP180;9980;51.020;7.772;2022-10-20T10:45:56;97465.00;;;15.90
19666;BMP180;9980;51.020;7.772;2022-10-20T10:49:02;97468.00;;;15.90
19666;BMP180;9980;51.020;7.772;2022-10-20T10:55:48;97455.00;;;15.90
19666;BMP180;9980;51.020;7.772;2022-10-20T10:58:57;97460.00;;;15.90
19666;BMP180;9980;51.020;7.772;2022-10-20T11:05:30;97448.00;;;15.90
19666;BMP180;9980;51.020;7.772;2022-10-20T11:09:00;97444.00;;;15.90
19666;BMP180;9980;51.020;7.772;2022-10-20T11:26:13;97421.00;;;16.00
19666;BMP180;9980;51.020;7.772;2022-10-20T11:29:46;97424.00;;;16.00
19666;BMP180;9980;51.020;7.772;2022-10-20T11:35:50;97403.00;;;16.10
19666;BMP180;9980;51.020;7.772;2022-10-20T11:39:13;97402.00;;;16.10
19666;BMP180;9980;51.020;7.772;2022-10-20T11:42:24;97393.00;;;16.20
19666;BMP180;9980;51.020;7.772;2022-10-20T11:45:36;97403.00;;;16.20
19666;BMP180;9980;51.020;7.772;2022-10-20T11:48:50;97393.00;;;16.20
19666;BMP180;9980;51.020;7.772;2022-10-20T12:01:42;97413.00;;;16.40
19666;BMP180;9980;51.020;7.772;2022-10-20T12:08:28;97427.00;;;16.60
19666;BMP180;9980;51.020;7.772;2022-10-20T12:14:29;97423.00;;;16.70
19666;BMP180;9980;51.020;7.772;2022-10-20T12:17:35;97427.00;;;16.80
19666;BMP180;9980;51.020;7.772;2022-10-20T12:32:35;97404.00;;;16.90
19666;BMP180;9980;51.020;7.772;2022-10-20T12:38:03;97393.00;;;16.90
19666;BMP180;9980;51.020;7.772;2022-10-20T12:40:56;97397.00;;;16.90
19666;BMP180;9980;51.020;7.772;2022-10-20T12:44:00;97401.00;;;16.90
19666;BMP180;9980;51.020;7.772;2022-10-20T12:46:41;97399.00;;;16.90
19666;BMP180;9980;51.020;7.772;2022-10-20T12:50:05;97388.00;;;16.90
19666;BMP180;9980;51.020;7.772;2022-10-20T12:52:47;97373.00;;;16.90
19666;BMP180;9980;51.020;7.772;2022-10-20T12:55:37;97363.00;;;16.80
19666;BMP180;9980;51.020;7.772;2022-10-20T13:01:10;97363.00;;;16.80
19666;BMP180;9980;51.020;7.772;2022-10-20T13:03:51;97378.00;;;16.80
19666;BMP180;9980;51.020;7.772;2022-10-20T13:06:40;97367.00;;;16.80
19666;BMP180;9980;51.020;7.772;2022-10-20T13:09:22;97373.00;;;16.80
19666;BMP180;9980;51.020;7.772;2022-10-20T13:12:26;97353.00;;;16.70
19666;BMP180;9980;51.020;7.772;2022-10-20T13:15:09;97360.00;;;16.70
19666;BMP180;9980;51.020;7.772;2022-10-20T13:21:02;97381.00;;;16.70
19666;BMP180;9980;51.020;7.772;2022-10-20T13:24:27;97366.00;;;16.70
19666;BMP180;9980;51.020;7.772;2022-10-20T13:27:15;97357.00;;;16.70
19666;BMP180;9980;51.020;7.772;2022-10-20T13:30:09;97351.00;;;16.70
19666;BMP180;9980;51.020;7.772;2022-10-20T13:33:22;97350.00;;;16.60
19666;BMP180;9980;51.020;7.772;2022-10-20T13:37:20;97342.00;;;16.60
19666;BMP180;9980;51.020;7.772;2022-10-20T13:43:41;97337.00;;;16.60
19666;BMP180;9980;51.020;7.772;2022-10-20T13:50:20;97350.00;;;16.50
19666;BMP180;9980;51.020;7.772;2022-10-20T13:53:18;97318.00;;;16.50
19666;BMP180;9980;51.020;7.772;2022-10-20T13:56:27;97368.00;;;16.50
19666;BMP180;9980;51.020;7.772;2022-10-20T14:02:30;97348.00;;;16.40
19666;BMP180;9980;51.020;7.772;2022-10-20T14:05:11;97352.00;;;16.50
19666;BMP180;9980;51.020;7.772;2022-10-20T14:08:13;97351.00;;;16.40
19666;BMP180;9980;51.020;7.772;2022-10-20T14:10:58;97356.00;;;16.40
19666;BMP180;9980;51.020;7.772;2022-10-20T14:13:56;97357.00;;;16.40
19666;BMP180;9980;51.020;7.772;2022-10-20T14:16:32;97350.00;;;16.40
19666;BMP180;9980;51.020;7.772;2022-10-20T14:19:28;97352.00;;;16.40
19666;BMP180;9980;51.020;7.772;2022-10-20T14:22:18;97351.00;;;16.40
19666;BMP180;9980;51.020;7.772;2022-10-20T14:25:08;97331.00;;;16.40
19666;BMP180;9980;51.020;7.772;2022-10-20T14:27:50;97330.00;;;16.40
19666;BMP180;9980;51.020;7.772;2022-10-20T14:30:41;97324.00;;;16.40
19666;BMP180;9980;51.020;7.772;2022-10-20T14:33:21;97338.00;;;16.50
19666;BMP180;9980;51.020;7.772;2022-10-20T14:36:22;97352.00;;;16.40
19666;BMP180;9980;51.020;7.772;2022-10-20T14:39:03;97339.00;;;16.50
19666;BMP180;9980;51.020;7.772;2022-10-20T14:41:50;97328.00;;;16.40
19666;BMP180;9980;51.020;7.772;2022-10-20T14:44:32;97347.00;;;16.50
19666;BMP180;9980;51.020;7.772;2022-10-20T14:47:38;97341.00;;;16.50
19666;BMP180;9980;51.020;7.772;2022-10-20T14:50:38;97339.00;;;16.40
19666;BMP180;9980;51.020;7.772;2022-10-20T14:53:33;97328.00;;;16.50
19666;BMP180;9980;51.020;7.772;2022-10-20T14:56:23;97330.00;;;16.50
19666;BMP180;9980;51.020;7.772;2022-10-20T14:59:20;97315.00;;;16.40
19666;BMP180;9980;51.020;7.772;2022-10-20T15:05:35;97310.00;;;16.40
19666;BMP180;9980;51.020;7.772;2022-10-20T15:08:26;97308.00;;;16.40
19666;BMP180;9980;51.020;7.772;2022-10-20T15:11:26;97324.00;;;16.40
19666;BMP180;9980;51.020;7.772;2022-10-20T15:14:15;97333.00;;;16.40
19666;BMP180;9980;51.020;7.772;2022-10-20T15:17:02;97291.00;;;16.40
19666;BMP180;9980;51.020;7.772;2022-10-20T15:19:42;97329.00;;;16.40
19666;BMP180;9980;51.020;7.772;2022-10-20T15:22:36;97319.00;;;16.40
19666;BMP180;9980;51.020;7.772;2022-10-20T15:25:10;97310.00;;;16.30
19666;BMP180;9980;51.020;7.772;2022-10-20T15:28:05;97320.00;;;16.40
19666;BMP180;9980;51.020;7.772;2022-10-20T15:30:39;97292.00;;;16.40
19666;BMP180;9980;51.020;7.772;2022-10-20T15:33:33;97294.00;;;16.30
19666;BMP180;9980;51.020;7.772;2022-10-20T15:36:17;97310.00;;;16.30
19666;BMP180;9980;51.020;7.772;2022-10-20T15:39:14;97312.00;;;16.30
19666;BMP180;9980;51.020;7.772;2022-10-20T15:41:47;97303.00;;;16.30
19666;BMP180;9980;51.020;7.772;2022-10-20T15:44:41;97307.00;;;16.30
19666;BMP180;9980;51.020;7.772;2022-10-20T15:47:21;97302.00;;;16.30
19666;BMP180;9980;51.020;7.772;2022-10-20T15:50:10;97298.00;;;16.30
19666;BMP180;9980;51.020;7.772;2022-10-20T15:52:54;97302.00;;;16.30
19666;BMP180;9980;51.020;7.772;2022-10-20T15:55:48;97278.00;;;16.30
19666;BMP180;9980;51.020;7.772;2022-10-20T15:58:28;97287.00;;;16.30
19666;BMP180;9980;51.020;7.772;2022-10-20T16:01:20;97293.00;;;16.20
19666;BMP180;9980;51.020;7.772;2022-10-20T16:04:17;97284.00;;;16.20
19666;BMP180;9980;51.020;7.772;2022-10-20T16:07:12;97270.00;;;16.20
19666;BMP180;9980;51.020;7.772;2022-10-20T16:09:52;97277.00;;;16.20
19666;BMP180;9980;51.020;7.772;2022-10-20T16:12:46;97277.00;;;16.20
19666;BMP180;9980;51.020;7.772;2022-10-20T16:15:20;97268.00;;;16.20
19666;BMP180;9980;51.020;7.772;2022-10-20T16:18:14;97272.00;;;16.10
19666;BMP180;9980;51.020;7.772;2022-10-20T16:20:47;97267.00;;;16.20
19666;BMP180;9980;51.020;7.772;2022-10-20T16:23:42;97264.00;;;16.10
19666;BMP180;9980;51.020;7.772;2022-10-20T16:26:17;97265.00;;;16.20
19666;BMP180;9980;51.020;7.772;2022-10-20T16:29:11;97268.00;;;16.10
19666;BMP180;9980;51.020;7.772;2022-10-20T16:31:51;97261.00;;;16.20
19666;BMP180;9980;51.020;7.772;2022-10-20T16:34:45;97261.00;;;16.10
19666;BMP180;9980;51.020;7.772;2022-10-20T16:37:25;97260.00;;;16.10
19666;BMP180;9980;51.020;7.772;2022-10-20T16:40:13;97246.00;;;16.10
19666;BMP180;9980;51.020;7.772;2022-10-20T16:42:53;97261.00;;;16.10
19666;BMP180;9980;51.020;7.772;2022-10-20T16:45:40;97261.00;;;16.00
19666;BMP180;9980;51.020;7.772;2022-10-20T16:48:21;97259.00;;;16.00
19666;BMP180;9980;51.020;7.772;2022-10-20T16:51:17;97268.00;;;16.00
19666;BMP180;9980;51.020;7.772;2022-10-20T16:53:58;97264.00;;;16.00
19666;BMP180;9980;51.020;7.772;2022-10-20T16:56:45;97261.00;;;16.00
19666;BMP180;9980;51.020;7.772;2022-10-20T16:59:25;97255.00;;;16.00
19666;BMP180;9980;51.020;7.772;2022-10-20T17:02:12;97265.00;;;15.90
19666;BMP180;9980;51.020;7.772;2022-10-20T17:04:52;97258.00;;;15.90
19666;BMP180;9980;51.020;7.772;2022-10-20T17:07:48;97266.00;;;15.90
19666;BMP180;9980;51.020;7.772;2022-10-20T17:10:22;97253.00;;;15.90
19666;BMP180;9980;51.020;7.772;2022-10-20T17:13:16;97254.00;;;15.80
19666;BMP180;9980;51.020;7.772;2022-10-20T17:15:49;97255.00;;;15.90
19666;BMP180;9980;51.020;7.772;2022-10-20T17:18:43;97249.00;;;15.80
19666;BMP180;9980;51.020;7.772;2022-10-20T17:21:17;97252.00;;;15.80
19666;BMP180;9980;51.020;7.772;2022-10-20T17:24:12;97259.00;;;15.80
19666;BMP180;9980;51.020;7.772;2022-10-20T17:26:46;97260.00;;;15.80
19666;BMP180;9980;51.020;7.772;2022-10-20T17:29:40;97257.00;;;15.80
19666;BMP180;9980;51.020;7.772;2022-10-20T17:32:20;97256.00;;;15.80
19666;BMP180;9980;51.020;7.772;2022-10-20T17:35:07;97259.00;;;15.80
19666;BMP180;9980;51.020;7.772;2022-10-20T17:37:48;97273.00;;;15.80
19666;BMP180;9980;51.020;7.772;2022-10-20T17:40:37;97273.00;;;15.80
19666;BMP180;9980;51.020;7.772;2022-10-20T17:43:17;97257.00;;;15.80
19666;BMP180;9980;51.020;7.772;2022-10-20T17:46:12;97275.00;;;15.70
19666;BMP180;9980;51.020;7.772;2022-10-20T17:48:53;97255.00;;;15.80
19666;BMP180;9980;51.020;7.772;2022-10-20T17:51:40;97262.00;;;15.80
19666;BMP180;9980;51.020;7.772;2022-10-20T17:54:22;97267.00;;;15.80
19666;BMP180;9980;51.020;7.772;2022-10-20T17:57:16;97276.00;;;15.80
19666;BMP180;9980;51.020;7.772;2022-10-20T17:59:49;97278.00;;;15.80
19666;BMP180;9980;51.020;7.772;2022-10-20T18:02:50;97269.00;;;15.80
19666;BMP180;9980;51.020;7.772;2022-10-20T18:05:24;97276.00;;;15.80
19666;BMP180;9980;51.020;7.772;2022-10-20T18:08:18;97294.00;;;15.80